createdAt,value
2023-04-17T00:00:37.810Z,45.60
2023-04-17T00:03:06.354Z,52.30
2023-04-17T00:05:34.917Z,55.40
2023-04-17T00:08:03.175Z,56.80
2023-04-17T00:10:31.468Z,58.50
2023-04-17T00:12:59.839Z,52.10
2023-04-17T00:15:28.162Z,49.90
2023-04-17T00:17:56.410Z,48.30
2023-04-17T00:20:24.703Z,47.20
2023-04-17T00:22:52.975Z,48.70
2023-04-17T00:25:21.281Z,54.90
2023-04-17T00:27:50.240Z,57.20
2023-04-17T00:30:18.521Z,58.60
2023-04-17T00:32:46.931Z,55.90
2023-04-17T00:35:15.314Z,51.40
2023-04-17T00:37:43.656Z,49.50
2023-04-17T00:40:12.562Z,48.30
2023-04-17T00:42:40.310Z,47.40
2023-04-17T00:45:09.070Z,46.30
2023-04-17T00:47:36.997Z,45.60
2023-04-17T00:50:06.567Z,44.50
2023-04-17T00:52:34.903Z,44.30
2023-04-17T00:55:03.389Z,43.40
2023-04-17T00:57:31.601Z,42.90
2023-04-17T01:00:00.165Z,42.40
2023-04-17T01:02:28.816Z,41.90
2023-04-17T01:04:57.340Z,41.70
2023-04-17T01:07:25.858Z,41.20
2023-04-17T01:09:54.914Z,41.20
2023-04-17T01:12:25.362Z,47.40
2023-04-17T01:14:54.864Z,51.20
2023-04-17T01:17:23.841Z,53.00
2023-04-17T01:19:52.291Z,55.20
2023-04-17T01:22:21.055Z,55.50
2023-04-17T01:24:52.835Z,50.20
2023-04-17T01:27:21.111Z,47.70
2023-04-17T01:29:49.814Z,46.40
2023-04-17T01:32:19.290Z,51.30
2023-04-17T01:34:47.684Z,55.20
2023-04-17T01:37:15.911Z,57.30
2023-04-17T01:39:44.043Z,58.70
2023-04-17T01:42:12.335Z,54.60
2023-04-17T01:44:40.717Z,50.70
2023-04-17T01:47:08.884Z,49.10
2023-04-17T01:49:37.070Z,48.20
2023-04-17T01:52:05.668Z,49.60
2023-04-17T01:54:34.029Z,57.00
2023-04-17T01:57:02.291Z,59.40
2023-04-17T01:59:30.558Z,61.10
2023-04-17T02:01:58.881Z,60.70
2023-04-17T02:04:27.278Z,55.10
2023-04-17T02:06:55.582Z,52.30
2023-04-17T02:09:23.819Z,58.20
2023-04-17T02:11:52.302Z,60.40
2023-04-17T02:14:21.310Z,61.90
2023-04-17T02:16:49.597Z,62.60
2023-04-17T02:19:17.804Z,56.50
2023-04-17T02:21:45.969Z,54.20
2023-04-17T02:24:14.056Z,52.50
2023-04-17T02:26:42.221Z,51.00
2023-04-17T02:29:10.844Z,49.90
2023-04-17T02:31:41.252Z,48.80
2023-04-17T02:34:12.381Z,48.50
2023-04-17T02:36:42.045Z,47.00
2023-04-17T02:39:10.341Z,46.10
2023-04-17T02:41:40.541Z,45.20
2023-04-17T02:44:10.052Z,44.80
2023-04-17T02:46:38.907Z,44.30
2023-04-17T02:49:09.780Z,43.60
2023-04-17T02:51:39.448Z,43.30
2023-04-17T02:54:07.964Z,45.00
2023-04-17T02:56:36.124Z,51.30
2023-04-17T02:59:04.528Z,54.10
2023-04-17T03:01:32.737Z,56.00
2023-04-17T03:04:01.440Z,58.20
2023-04-17T03:06:29.811Z,59.10
2023-04-17T03:08:58.883Z,52.70
2023-04-17T03:11:26.977Z,50.50
2023-04-17T03:13:55.198Z,49.00
2023-04-17T03:16:23.602Z,48.00
2023-04-17T03:18:52.011Z,54.90
2023-04-17T03:21:21.299Z,57.90
2023-04-17T03:23:50.401Z,60.00
2023-04-17T03:26:20.772Z,61.60
2023-04-17T03:28:49.304Z,58.70
2023-04-17T03:31:18.033Z,54.20
2023-04-17T03:33:47.360Z,51.90
2023-04-17T03:36:15.674Z,50.80
2023-04-17T03:38:44.610Z,49.40
2023-04-17T03:41:14.450Z,55.80
2023-04-17T03:43:42.710Z,58.40
2023-04-17T03:46:11.032Z,60.80
2023-04-17T03:48:40.021Z,62.50
2023-04-17T03:51:08.146Z,60.40
2023-04-17T03:53:38.125Z,55.50
2023-04-17T03:56:09.949Z,53.40
2023-04-17T03:58:41.986Z,52.20
2023-04-17T04:01:13.066Z,54.30
2023-04-17T04:03:55.312Z,59.70
2023-04-17T04:06:24.155Z,61.50
2023-04-17T04:08:52.452Z,63.30
2023-04-17T04:11:21.170Z,65.30
2023-04-17T04:13:49.639Z,58.60
2023-04-17T04:16:17.999Z,55.20
2023-04-17T04:18:46.718Z,53.40
2023-04-17T04:21:16.699Z,52.10
2023-04-17T04:23:45.154Z,50.70
2023-04-17T04:26:15.872Z,49.60
2023-04-17T04:28:49.833Z,48.60
2023-04-17T04:31:28.873Z,47.60
2023-04-17T04:33:59.108Z,46.80
2023-04-17T04:36:28.403Z,46.30
2023-04-17T04:39:17.906Z,45.30
2023-04-17T04:41:46.322Z,45.00
2023-04-17T04:44:16.173Z,45.60
2023-04-17T04:46:46.493Z,53.00
2023-04-17T04:49:14.940Z,56.00
2023-04-17T04:51:43.308Z,58.10
2023-04-17T04:54:11.371Z,60.00
2023-04-17T04:56:49.800Z,61.30
2023-04-17T04:59:18.042Z,56.80
2023-04-17T05:01:54.548Z,53.40
2023-04-17T05:04:24.646Z,52.00
2023-04-17T05:06:56.627Z,57.20
2023-04-17T05:09:24.890Z,60.70
2023-04-17T05:11:56.032Z,62.60
2023-04-17T05:14:24.367Z,63.70
2023-04-17T05:16:52.529Z,64.90
2023-04-17T05:19:21.158Z,58.20
2023-04-17T05:21:57.541Z,55.50
2023-04-17T05:24:26.211Z,53.50
2023-04-17T05:26:55.044Z,51.80
2023-04-17T05:29:24.293Z,57.90
2023-04-17T05:31:52.840Z,60.80
2023-04-17T05:34:36.382Z,62.90
2023-04-17T05:37:05.670Z,64.30
2023-04-17T05:39:33.711Z,65.40
2023-04-17T05:42:02.933Z,58.90
2023-04-17T05:44:32.149Z,55.70
2023-04-17T05:47:00.327Z,53.80
2023-04-17T05:49:28.458Z,52.20
2023-04-17T05:51:56.638Z,50.90
2023-04-17T05:54:25.058Z,54.90
2023-04-17T05:56:53.614Z,59.10
2023-04-17T05:59:22.288Z,61.50
2023-04-17T06:01:51.386Z,62.70
2023-04-17T06:04:22.536Z,64.60
2023-04-17T06:06:52.306Z,62.50
2023-04-17T06:09:23.526Z,57.00
2023-04-17T06:11:53.551Z,54.70
2023-04-17T06:14:21.680Z,53.10
2023-04-17T06:16:49.992Z,52.20
2023-04-17T06:19:18.638Z,51.50
2023-04-17T06:21:46.833Z,51.00
2023-04-17T06:24:15.158Z,57.50
2023-04-17T06:26:48.651Z,60.00
2023-04-17T06:29:17.007Z,62.40
2023-04-17T06:31:45.781Z,63.80
2023-04-17T06:34:16.475Z,62.70
2023-04-17T06:36:48.528Z,57.80
2023-04-17T06:39:18.544Z,56.00
2023-04-17T06:41:48.169Z,62.70
2023-04-17T06:44:24.791Z,65.70
2023-04-17T06:46:53.468Z,67.80
2023-04-17T06:49:21.724Z,68.90
2023-04-17T06:51:51.451Z,69.80
2023-04-17T06:54:19.807Z,62.60
2023-04-17T06:56:47.965Z,59.10
2023-04-17T06:59:16.191Z,58.60
2023-04-17T07:01:44.372Z,65.00
2023-04-17T07:04:13.013Z,67.90
2023-04-17T07:06:40.926Z,70.80
2023-04-17T07:09:08.948Z,72.20
2023-04-17T07:11:37.563Z,65.90
2023-04-17T07:14:05.813Z,63.50
2023-04-17T07:16:33.990Z,59.30
2023-04-17T07:19:02.323Z,61.10
2023-04-17T07:21:30.547Z,65.90
2023-04-17T07:23:58.720Z,68.00
2023-04-17T07:26:27.010Z,70.20
2023-04-17T07:28:55.233Z,67.30
2023-04-17T07:31:23.453Z,62.30
2023-04-17T07:33:51.641Z,59.60
2023-04-17T07:36:19.894Z,57.80
2023-04-17T07:38:48.142Z,56.30
2023-04-17T07:41:16.197Z,55.20
2023-04-17T07:43:44.459Z,55.10
2023-04-17T07:46:12.654Z,62.40
2023-04-17T07:48:41.181Z,65.50
2023-04-17T07:51:09.376Z,67.50
2023-04-17T07:53:37.588Z,70.30
2023-04-17T07:56:06.211Z,65.40
2023-04-17T07:58:34.223Z,61.90
2023-04-17T08:01:04.188Z,59.50
2023-04-17T08:03:33.030Z,65.50
2023-04-17T08:06:01.331Z,68.00
2023-04-17T08:08:29.656Z,71.10
2023-04-17T08:10:57.847Z,72.50
2023-04-17T08:13:26.642Z,74.40
2023-04-17T08:15:54.794Z,68.50
2023-04-17T08:18:23.042Z,65.00
2023-04-17T08:20:51.469Z,64.00
2023-04-17T08:23:19.558Z,69.50
2023-04-17T08:25:50.005Z,71.70
2023-04-17T08:28:18.252Z,73.80
2023-04-17T08:30:46.418Z,75.90
2023-04-17T08:33:14.744Z,70.40
2023-04-17T08:35:43.108Z,66.20
2023-04-17T08:38:11.415Z,63.00
2023-04-17T08:40:39.855Z,67.80
2023-04-17T08:43:14.318Z,70.60
2023-04-17T08:45:48.946Z,72.70
2023-04-17T08:48:17.435Z,73.30
2023-04-17T08:50:48.784Z,70.30
2023-04-17T08:53:18.321Z,65.20
2023-04-17T08:55:47.747Z,61.80
2023-04-17T08:58:15.966Z,66.00
2023-04-17T09:00:45.514Z,68.00
2023-04-17T09:03:15.035Z,69.60
2023-04-17T09:05:44.432Z,72.20
2023-04-17T09:08:23.063Z,73.40
2023-04-17T09:10:53.248Z,67.00
2023-04-17T09:13:23.220Z,63.10
2023-04-17T09:16:20.974Z,63.30
2023-04-17T09:18:49.375Z,68.00
2023-04-17T09:21:20.685Z,69.70
2023-04-17T09:23:56.655Z,71.70
2023-04-17T09:26:27.341Z,73.00
2023-04-17T09:29:12.287Z,69.80
2023-04-17T09:31:43.340Z,63.30
2023-04-17T09:34:13.918Z,62.20
2023-04-17T09:36:43.946Z,67.10
2023-04-17T09:39:23.534Z,69.10
2023-04-17T09:42:03.215Z,70.90
2023-04-17T09:44:32.184Z,72.40
2023-04-17T09:47:02.659Z,69.30
2023-04-17T09:49:41.540Z,64.10
2023-04-17T09:52:10.344Z,61.30
2023-04-17T09:54:40.155Z,66.90
2023-04-17T09:57:09.960Z,68.60
2023-04-17T09:59:42.199Z,71.10
2023-04-17T10:02:14.904Z,72.70
2023-04-17T10:04:45.356Z,73.10
2023-04-17T10:07:17.211Z,66.20
2023-04-17T10:09:45.801Z,62.40
2023-04-17T10:12:16.748Z,64.30
2023-04-17T10:14:54.216Z,67.40
2023-04-17T10:17:31.112Z,69.80
2023-04-17T10:20:17.884Z,72.10
2023-04-17T10:22:46.699Z,73.70
2023-04-17T10:25:15.358Z,66.50
2023-04-17T10:27:44.749Z,63.00
2023-04-17T10:30:14.751Z,62.70
2023-04-17T10:32:46.174Z,67.30
2023-04-17T10:35:18.275Z,69.70
2023-04-17T10:37:50.387Z,71.60
2023-04-17T10:40:26.994Z,73.20
2023-04-17T10:43:18.235Z,67.90
2023-04-17T10:46:05.132Z,63.80
2023-04-17T10:48:37.019Z,61.80
2023-04-17T10:51:23.915Z,67.20
2023-04-17T10:54:03.518Z,69.30
2023-04-17T10:56:43.472Z,71.20
2023-04-17T10:59:13.956Z,71.30
2023-04-17T11:01:48.560Z,66.00
2023-04-17T11:04:22.315Z,62.20
2023-04-17T11:06:51.361Z,62.40
2023-04-17T11:09:22.019Z,66.80
2023-04-17T11:11:50.334Z,69.50
2023-04-17T11:14:20.600Z,71.20
2023-04-17T11:16:51.153Z,72.50
2023-04-17T11:19:24.471Z,65.70
2023-04-17T11:21:55.183Z,61.70
2023-04-17T11:24:28.806Z,60.40
2023-04-17T11:26:58.453Z,65.70
2023-04-17T11:29:27.708Z,68.10
2023-04-17T11:31:58.474Z,70.20
2023-04-17T11:34:27.698Z,72.00
2023-04-17T11:36:58.284Z,66.70
2023-04-17T11:39:29.482Z,61.70
2023-04-17T11:41:58.166Z,59.30
2023-04-17T11:44:26.903Z,64.70
2023-04-17T11:46:59.275Z,67.60
2023-04-17T11:49:31.778Z,68.80
2023-04-17T11:52:04.892Z,70.90
2023-04-17T11:54:36.618Z,64.50
2023-04-17T11:57:06.333Z,61.00
2023-04-17T11:59:39.880Z,59.60
2023-04-17T12:02:09.237Z,58.30
2023-04-17T12:04:38.734Z,57.10
2023-04-17T12:07:08.424Z,57.70
2023-04-17T12:09:37.235Z,56.80
2023-04-17T12:12:05.948Z,55.90
2023-04-17T12:14:34.490Z,55.00
2023-04-17T12:17:02.757Z,54.20
2023-04-17T12:19:30.905Z,53.40
2023-04-17T12:21:59.505Z,53.10
2023-04-17T12:24:27.818Z,52.10
2023-04-17T12:26:56.229Z,51.30
2023-04-17T12:29:36.732Z,50.60
2023-04-17T12:32:11.249Z,50.40
2023-04-17T12:34:39.591Z,50.20
2023-04-17T12:37:07.949Z,54.00
2023-04-17T12:39:36.215Z,59.00
2023-04-17T12:42:04.589Z,61.60
2023-04-17T12:44:32.813Z,63.60
2023-04-17T12:47:01.035Z,59.50
2023-04-17T12:49:29.249Z,56.40
2023-04-17T12:51:57.550Z,54.90
2023-04-17T12:54:25.768Z,53.70
2023-04-17T12:56:54.429Z,52.40
2023-04-17T12:59:22.633Z,51.70
2023-04-17T13:01:51.109Z,50.90
2023-04-17T13:04:19.777Z,50.20
2023-04-17T13:06:48.942Z,49.20
2023-04-17T13:09:17.058Z,55.40
2023-04-17T13:11:45.273Z,59.50
2023-04-17T13:14:13.968Z,62.20
2023-04-17T13:16:41.971Z,64.50
2023-04-17T13:19:10.491Z,64.60
2023-04-17T13:21:39.023Z,58.80
2023-04-17T13:24:07.381Z,56.30
2023-04-17T13:26:36.915Z,55.80
2023-04-17T13:29:05.247Z,61.90
2023-04-17T13:31:33.624Z,64.30
2023-04-17T13:34:03.002Z,66.50
2023-04-17T13:36:31.378Z,66.90
2023-04-17T13:38:59.718Z,60.90
2023-04-17T13:41:27.976Z,57.80
2023-04-17T13:43:56.369Z,55.80
2023-04-17T13:46:25.176Z,54.20
2023-04-17T13:48:53.515Z,53.00
2023-04-17T13:51:21.862Z,52.00
2023-04-17T13:53:50.429Z,51.00
2023-04-17T13:56:18.526Z,50.20
2023-04-17T13:58:46.777Z,49.50
2023-04-17T14:01:15.267Z,49.10
2023-04-17T14:03:45.943Z,48.60
2023-04-17T14:06:14.656Z,47.80
2023-04-17T14:08:44.308Z,48.30
2023-04-17T14:11:15.048Z,48.60
2023-04-17T14:13:43.496Z,48.20
2023-04-17T14:16:11.681Z,47.90
2023-04-17T14:18:40.137Z,47.60
2023-04-17T14:21:08.398Z,54.50
2023-04-17T14:23:36.732Z,58.90
2023-04-17T14:26:05.609Z,61.60
2023-04-17T14:28:33.911Z,64.20
2023-04-17T14:31:02.447Z,59.20
2023-04-17T14:33:30.502Z,56.60
2023-04-17T14:35:59.159Z,55.20
2023-04-17T14:38:27.158Z,53.60
2023-04-17T14:40:55.447Z,52.50
2023-04-17T14:43:23.734Z,51.60
2023-04-17T14:45:51.949Z,50.50
2023-04-17T14:48:20.746Z,49.90
2023-04-17T14:50:48.679Z,49.40
2023-04-17T14:53:17.135Z,48.80
2023-04-17T14:55:46.778Z,48.30
2023-04-17T14:58:14.642Z,47.60
2023-04-17T15:00:42.841Z,51.40
2023-04-17T15:03:11.410Z,56.20
2023-04-17T15:05:39.900Z,59.40
2023-04-17T15:08:08.337Z,62.30
2023-04-17T15:10:48.001Z,62.00
2023-04-17T15:13:19.683Z,57.20
2023-04-17T15:15:47.836Z,55.10
2023-04-17T15:18:16.293Z,53.50
2023-04-17T15:20:44.549Z,52.00
2023-04-17T15:23:13.043Z,50.80
2023-04-17T15:25:41.258Z,49.90
2023-04-17T15:28:09.709Z,49.40
2023-04-17T15:30:37.861Z,48.60
2023-04-17T15:33:08.466Z,47.90
2023-04-17T15:35:39.042Z,48.20
2023-04-17T15:38:08.007Z,48.40
2023-04-17T15:40:37.941Z,48.20
2023-04-17T15:43:06.306Z,48.00
2023-04-17T15:45:34.613Z,47.70
2023-04-17T15:48:02.883Z,47.60
2023-04-17T15:50:31.318Z,47.50
2023-04-17T15:52:59.629Z,47.30
2023-04-17T15:55:27.863Z,47.20
2023-04-17T15:57:56.305Z,47.50
2023-04-17T16:00:24.529Z,47.30
2023-04-17T16:02:52.992Z,47.60
2023-04-17T16:05:22.087Z,46.90
2023-04-17T16:07:50.331Z,47.50
2023-04-17T16:10:18.606Z,47.30
2023-04-17T16:12:48.170Z,47.50
2023-04-17T16:15:17.823Z,47.60
2023-04-17T16:17:46.619Z,48.00
2023-04-17T16:20:14.731Z,48.90
2023-04-17T16:22:43.349Z,49.30
2023-04-17T16:25:11.726Z,48.40
2023-04-17T16:27:40.622Z,48.00
2023-04-17T16:30:09.103Z,47.50
2023-04-17T16:32:37.175Z,47.30
2023-04-17T16:35:06.133Z,46.90
2023-04-17T16:37:34.344Z,46.60
2023-04-17T16:40:02.695Z,46.00
2023-04-17T16:42:31.774Z,45.70
2023-04-17T16:45:00.043Z,45.40
2023-04-17T16:47:31.650Z,45.30
2023-04-17T16:49:59.887Z,44.70
2023-04-17T16:52:28.023Z,44.70
2023-04-17T16:54:56.297Z,45.10
2023-04-17T16:57:24.389Z,44.30
2023-04-17T16:59:52.572Z,44.10
2023-04-17T17:02:20.798Z,44.30
2023-04-17T17:04:49.311Z,45.10
2023-04-17T17:07:17.369Z,44.50
2023-04-17T17:09:45.718Z,44.00
2023-04-17T17:12:13.871Z,44.20
2023-04-17T17:14:42.187Z,44.20
2023-04-17T17:17:10.522Z,43.60
2023-04-17T17:19:42.649Z,43.60
2023-04-17T17:22:10.876Z,44.20
2023-04-17T17:24:40.285Z,43.30
2023-04-17T17:27:08.583Z,43.20
2023-04-17T17:29:36.730Z,43.00
2023-04-17T17:32:05.430Z,43.20
2023-04-17T17:34:33.308Z,42.70
2023-04-17T17:37:01.400Z,42.80
2023-04-17T17:39:29.743Z,42.80
2023-04-17T17:41:57.899Z,43.30
2023-04-17T17:44:26.191Z,43.30
2023-04-17T17:46:54.391Z,42.80
2023-04-17T17:49:22.643Z,43.30
2023-04-17T17:51:50.832Z,42.90
2023-04-17T17:54:19.197Z,42.80
2023-04-17T17:56:47.429Z,42.60
2023-04-17T17:59:15.946Z,42.50
2023-04-17T18:01:44.375Z,42.60
2023-04-17T18:04:13.004Z,42.10
2023-04-17T18:06:41.247Z,41.90
2023-04-17T18:09:09.659Z,41.70
2023-04-17T18:11:38.083Z,41.90
2023-04-17T18:14:06.219Z,42.30
2023-04-17T18:16:34.665Z,42.00
2023-04-17T18:19:03.176Z,41.70
2023-04-17T18:21:34.354Z,42.10
2023-04-17T18:24:02.737Z,42.20
2023-04-17T18:26:30.838Z,42.30
2023-04-17T18:28:59.071Z,41.80
2023-04-17T18:31:27.366Z,41.70
2023-04-17T18:33:55.665Z,41.50
2023-04-17T18:36:23.790Z,41.60
2023-04-17T18:38:52.194Z,41.80
2023-04-17T18:41:20.493Z,41.80
2023-04-17T18:43:48.762Z,41.80
2023-04-17T18:46:17.006Z,41.80
2023-04-17T18:48:45.198Z,42.40
2023-04-17T18:51:14.184Z,42.10
2023-04-17T18:53:42.457Z,41.90
2023-04-17T18:56:12.362Z,41.60
2023-04-17T18:58:40.639Z,41.40
2023-04-17T19:01:09.284Z,41.30
2023-04-17T19:03:38.562Z,41.20
2023-04-17T19:06:07.025Z,40.80
2023-04-17T19:08:35.975Z,40.80
2023-04-17T19:11:03.971Z,41.30
2023-04-17T19:13:32.985Z,46.70
2023-04-17T19:16:01.241Z,50.50
2023-04-17T19:18:29.402Z,53.30
2023-04-17T19:20:57.695Z,55.20
2023-04-17T19:23:25.978Z,51.30
2023-04-17T19:25:54.376Z,48.90
2023-04-17T19:28:23.297Z,49.20
2023-04-17T19:30:51.111Z,55.00
2023-04-17T19:33:19.463Z,57.30
2023-04-17T19:35:47.723Z,59.20
2023-04-17T19:38:17.337Z,60.30
2023-04-17T19:41:15.462Z,54.40
2023-04-17T19:43:50.481Z,51.00
2023-04-17T19:46:19.862Z,53.60
2023-04-17T19:48:48.739Z,57.80
2023-04-17T19:51:17.375Z,60.20
2023-04-17T19:53:47.024Z,61.60
2023-04-17T19:56:15.222Z,55.80
2023-04-17T19:58:43.604Z,52.80
2023-04-17T20:01:11.857Z,51.00
2023-04-17T20:03:40.407Z,54.10
2023-04-17T20:06:08.554Z,59.10
2023-04-17T20:08:36.804Z,61.10
2023-04-17T20:11:05.000Z,60.50
2023-04-17T20:13:33.273Z,55.40
2023-04-17T20:16:01.651Z,52.80
2023-04-17T20:18:29.997Z,53.30
2023-04-17T20:20:58.332Z,59.40
2023-04-17T20:23:26.666Z,61.90
2023-04-17T20:25:55.022Z,62.30
2023-04-17T20:28:23.305Z,56.60
2023-04-17T20:30:51.666Z,53.80
2023-04-17T20:33:19.978Z,52.10
2023-04-17T20:35:48.222Z,50.60
2023-04-17T20:38:16.337Z,54.50
2023-04-17T20:40:44.859Z,59.10
2023-04-17T20:43:13.059Z,61.00
2023-04-17T20:45:41.419Z,62.90
2023-04-17T20:48:09.624Z,56.90
2023-04-17T20:50:38.114Z,54.10
2023-04-17T20:53:06.214Z,52.20
2023-04-17T20:55:34.535Z,50.80
2023-04-17T20:58:02.610Z,53.00
2023-04-17T21:00:31.645Z,57.70
2023-04-17T21:03:00.409Z,60.20
2023-04-17T21:05:28.812Z,62.90
2023-04-17T21:07:57.166Z,64.20
2023-04-17T21:10:25.398Z,58.20
2023-04-17T21:12:53.698Z,54.20
2023-04-17T21:15:21.942Z,55.40
2023-04-17T21:17:50.160Z,59.50
2023-04-17T21:20:18.492Z,61.20
2023-04-17T21:22:46.743Z,63.10
2023-04-17T21:25:15.022Z,57.70
2023-04-17T21:27:43.398Z,55.00
2023-04-17T21:30:11.804Z,53.30
2023-04-17T21:32:40.447Z,51.70
2023-04-17T21:35:08.880Z,50.60
2023-04-17T21:37:37.156Z,49.50
2023-04-17T21:40:06.034Z,48.50
2023-04-17T21:42:37.208Z,47.90
2023-04-17T21:45:06.040Z,47.50
2023-04-17T21:47:34.573Z,46.60
2023-04-17T21:50:02.871Z,45.90
2023-04-17T21:52:31.571Z,46.10
2023-04-17T21:54:59.478Z,45.40
2023-04-17T21:57:27.615Z,44.90
2023-04-17T21:59:55.812Z,44.50
2023-04-17T22:02:24.093Z,44.00
2023-04-17T22:04:52.808Z,43.90
2023-04-17T22:07:21.148Z,43.80
2023-04-17T22:09:49.664Z,43.50
2023-04-17T22:12:18.212Z,43.20
2023-04-17T22:14:46.440Z,42.80
2023-04-17T22:17:15.488Z,43.00
2023-04-17T22:19:43.859Z,42.60
2023-04-17T22:22:12.108Z,42.70
2023-04-17T22:24:41.477Z,42.40
2023-04-17T22:27:09.860Z,42.40
2023-04-17T22:29:37.936Z,42.20
2023-04-17T22:32:06.441Z,42.20
2023-04-17T22:34:34.667Z,42.10
2023-04-17T22:37:03.162Z,41.90
2023-04-17T22:39:31.206Z,42.10
2023-04-17T22:41:59.579Z,42.00
2023-04-17T22:44:27.768Z,41.80
2023-04-17T22:46:56.108Z,41.80
2023-04-17T22:49:24.379Z,42.30
2023-04-17T22:51:52.930Z,42.60
2023-04-17T22:54:23.111Z,42.30
2023-04-17T22:56:51.908Z,42.40
2023-04-17T22:59:20.071Z,42.10
2023-04-17T23:01:48.378Z,42.80
2023-04-17T23:04:16.693Z,41.90
2023-04-17T23:06:45.041Z,41.60
2023-04-17T23:09:13.278Z,41.80
2023-04-17T23:11:41.701Z,41.70
2023-04-17T23:14:09.809Z,41.60
2023-04-17T23:16:37.992Z,41.40
2023-04-17T23:19:06.166Z,43.80
2023-04-17T23:21:36.525Z,49.90
2023-04-17T23:24:04.891Z,53.00
2023-04-17T23:26:33.110Z,54.80
2023-04-17T23:29:01.329Z,52.90
2023-04-17T23:31:29.459Z,48.80
2023-04-17T23:33:57.772Z,47.40
2023-04-17T23:36:25.827Z,46.80
2023-04-17T23:38:54.037Z,53.80
2023-04-17T23:41:22.310Z,56.50
2023-04-17T23:43:50.541Z,58.50
2023-04-17T23:46:18.723Z,55.60
2023-04-17T23:48:47.057Z,51.80
2023-04-17T23:51:15.100Z,50.10
2023-04-17T23:53:43.435Z,48.90
2023-04-17T23:56:11.594Z,48.10
2023-04-17T23:58:39.837Z,48.70
